Time;durP1;ratioP1;P1;durP2;ratioP2;P2;SDS_P1;SDS_P2;PMS_P1;PMS_P2;Temp;Humidity;BMP_temperature;BMP_pressure;BME280_temperature;BME280_humidity;BME280_pressure;Samples;Min_cycle;Max_cycle;Signal;HPM_P1;HPM_P2
2024/03/05 00:00:59;;;;;;;20.20;14.48;;;;;;;;;;5036996;28;20397;-81
2024/03/05 00:03:25;;;;;;;16.13;13.77;;;;;;;;;;5036896;28;20406;-81
2024/03/05 00:05:51;;;;;;;15.55;12.60;;;;;;;;;;5036772;28;20386;-81
2024/03/05 00:08:17;;;;;;;11.68;10.48;;;;;;;;;;5036534;28;20371;-81
2024/03/05 00:10:43;;;;;;;11.93;10.35;;;;;;;;;;5037151;28;20387;-81
2024/03/05 00:13:09;;;;;;;11.23;10.13;;;;;;;;;;5037046;28;20387;-81
2024/03/05 00:15:35;;;;;;;11.23;10.13;;;;;;;;;;5037240;28;20383;-81
2024/03/05 00:18:04;;;;;;;10.75;9.65;;;;;;;;;;5036706;28;20390;-81
2024/03/05 00:20:30;;;;;;;11.50;10.40;;;;;;;;;;5036991;28;20461;-81
2024/03/05 00:22:58;;;;;;;11.18;10.07;;;;;;;;;;5036428;28;20802;-81
2024/03/05 00:25:24;;;;;;;10.57;9.57;;;;;;;;;;5036730;28;20732;-81
2024/03/05 00:27:50;;;;;;;10.87;9.77;;;;;;;;;;5035519;28;20414;-81
2024/03/05 00:30:18;;;;;;;10.32;9.32;;;;;;;;;;5036995;28;20386;-81
2024/03/05 00:32:44;;;;;;;10.55;9.55;;;;;;;;;;5040507;28;20386;-80
2024/03/05 00:35:10;;;;;;;10.07;9.18;;;;;;;;;;5054261;28;20909;-81
2024/03/05 00:37:37;;;;;;;10.45;9.45;;;;;;;;;;5038544;28;20405;-81
2024/03/05 00:40:08;;;;;;;9.40;8.50;;;;;;;;;;5037467;28;20841;-81
2024/03/05 00:42:34;;;;;;;10.18;9.18;;;;;;;;;;5044956;28;20821;-81
2024/03/05 00:45:00;;;;;;;9.80;8.90;;;;;;;;;;5055499;28;20474;-81
2024/03/05 00:47:26;;;;;;;9.80;8.80;;;;;;;;;;5056704;28;20875;-81
2024/03/05 00:49:52;;;;;;;9.77;8.88;;;;;;;;;;5056280;28;20436;-81
2024/03/05 00:52:18;;;;;;;9.48;8.57;;;;;;;;;;5053720;28;20500;-81
2024/03/05 00:54:45;;;;;;;9.98;8.90;;;;;;;;;;5056089;28;20381;-81
2024/03/05 00:57:11;;;;;;;10.43;9.48;;;;;;;;;;5055183;28;20732;-81
2024/03/05 00:59:38;;;;;;;9.93;9.00;;;;;;;;;;5056104;28;20420;-81
2024/03/05 01:02:04;;;;;;;10.82;9.75;;;;;;;;;;5056096;28;20470;-81
2024/03/05 01:04:30;;;;;;;10.50;9.50;;;;;;;;;;5056035;28;20380;-81
2024/03/05 01:06:57;;;;;;;12.75;11.45;;;;;;;;;;5056626;28;20381;-81
2024/03/05 01:09:24;;;;;;;13.70;12.23;;;;;;;;;;5055065;28;20385;-81
2024/03/05 01:11:52;;;;;;;12.43;11.07;;;;;;;;;;5055044;28;20393;-81
2024/03/05 01:14:18;;;;;;;12.20;11.00;;;;;;;;;;5056182;28;20436;-81
2024/03/05 01:16:44;;;;;;;11.65;10.55;;;;;;;;;;5056479;28;20389;-81
2024/03/05 01:19:12;;;;;;;12.48;11.18;;;;;;;;;;5056048;28;20377;-81
2024/03/05 01:21:38;;;;;;;11.13;10.02;;;;;;;;;;5056283;28;20888;-81
2024/03/05 01:24:04;;;;;;;11.80;10.57;;;;;;;;;;5056090;28;20384;-81
2024/03/05 01:26:30;;;;;;;12.57;11.27;;;;;;;;;;5055974;28;20373;-81
2024/03/05 01:28:57;;;;;;;11.93;10.73;;;;;;;;;;5056147;28;20384;-81
2024/03/05 01:31:23;;;;;;;12.77;11.43;;;;;;;;;;5054925;28;20431;-81
2024/03/05 01:33:49;;;;;;;12.85;11.65;;;;;;;;;;5055807;28;20413;-81
2024/03/05 01:36:15;;;;;;;12.40;11.10;;;;;;;;;;5056185;28;20388;-81
2024/03/05 01:38:42;;;;;;;12.70;11.40;;;;;;;;;;5055375;28;20515;-81
2024/03/05 01:41:08;;;;;;;12.73;11.48;;;;;;;;;;5055992;28;20380;-80
2024/03/05 01:43:34;;;;;;;11.48;10.38;;;;;;;;;;5055433;28;20398;-81
2024/03/05 01:46:00;;;;;;;12.20;11.02;;;;;;;;;;5055740;28;20376;-81
2024/03/05 01:48:27;;;;;;;12.50;11.38;;;;;;;;;;5055344;28;20431;-81
2024/03/05 01:50:55;;;;;;;12.40;11.20;;;;;;;;;;5054831;28;20377;-81
2024/03/05 01:53:21;;;;;;;13.65;12.35;;;;;;;;;;5055375;28;20855;-81
2024/03/05 01:55:47;;;;;;;13.35;11.95;;;;;;;;;;5054896;28;20384;-81
2024/03/05 01:58:15;;;;;;;12.93;11.65;;;;;;;;;;5055643;28;20405;-81
2024/03/05 02:00:41;;;;;;;12.48;11.27;;;;;;;;;;5055346;28;20438;-81
2024/03/05 02:03:10;;;;;;;12.80;11.50;;;;;;;;;;5052015;28;20934;-81
2024/03/05 02:05:36;;;;;;;12.23;11.02;;;;;;;;;;5054559;28;20378;-82
2024/03/05 02:08:02;;;;;;;12.35;11.15;;;;;;;;;;5055028;28;20385;-81
2024/03/05 02:10:29;;;;;;;12.75;11.55;;;;;;;;;;5054677;28;20507;-81
2024/03/05 02:12:55;;;;;;;12.52;11.27;;;;;;;;;;5054494;28;20389;-81
2024/03/05 02:15:21;;;;;;;12.95;11.40;;;;;;;;;;5053399;28;20400;-81
2024/03/05 02:17:47;;;;;;;14.30;12.25;;;;;;;;;;5054355;28;20414;-81
2024/03/05 02:20:13;;;;;;;12.93;11.65;;;;;;;;;;5052894;28;20621;-81
2024/03/05 02:22:40;;;;;;;13.18;11.70;;;;;;;;;;5054841;28;20412;-81
2024/03/05 02:25:06;;;;;;;13.35;12.07;;;;;;;;;;5053904;28;20409;-81
2024/03/05 02:27:32;;;;;;;14.55;12.40;;;;;;;;;;5054228;28;20824;-81
2024/03/05 02:29:59;;;;;;;13.90;12.43;;;;;;;;;;5054339;28;20369;-81
2024/03/05 02:32:26;;;;;;;13.38;12.00;;;;;;;;;;5055243;28;20480;-81
2024/03/05 02:34:54;;;;;;;14.70;13.15;;;;;;;;;;5055389;28;20840;-81
2024/03/05 02:37:21;;;;;;;17.70;13.50;;;;;;;;;;5050729;28;20420;-81
2024/03/05 02:39:47;;;;;;;15.10;12.85;;;;;;;;;;5054886;28;20386;-81
2024/03/05 02:42:13;;;;;;;14.93;13.30;;;;;;;;;;5054777;28;20417;-81
2024/03/05 02:44:39;;;;;;;15.07;13.50;;;;;;;;;;5054665;28;20778;-81
2024/03/05 02:47:09;;;;;;;15.10;12.70;;;;;;;;;;5052825;28;20411;-81
2024/03/05 02:49:36;;;;;;;14.20;12.68;;;;;;;;;;5053636;28;20416;-81
2024/03/05 02:52:02;;;;;;;14.27;12.80;;;;;;;;;;5053775;28;20409;-81
2024/03/05 02:54:28;;;;;;;14.60;13.10;;;;;;;;;;5054320;28;20439;-81
2024/03/05 02:56:54;;;;;;;14.02;12.57;;;;;;;;;;5053910;28;20385;-81
2024/03/05 02:59:20;;;;;;;13.65;12.25;;;;;;;;;;5054072;28;20442;-81
2024/03/05 03:01:47;;;;;;;13.80;12.40;;;;;;;;;;5053941;28;20409;-81
2024/03/05 03:04:15;;;;;;;16.33;12.75;;;;;;;;;;5054359;28;20377;-81
2024/03/05 03:06:41;;;;;;;14.15;12.60;;;;;;;;;;5054233;28;20467;-81
2024/03/05 03:09:07;;;;;;;14.23;12.75;;;;;;;;;;5053886;28;20374;-81
2024/03/05 03:11:34;;;;;;;13.57;12.18;;;;;;;;;;5053845;28;20473;-81
2024/03/05 03:14:00;;;;;;;14.02;12.52;;;;;;;;;;5054120;28;20808;-81
2024/03/05 03:16:27;;;;;;;13.48;11.88;;;;;;;;;;5053697;28;20431;-81
2024/03/05 03:18:53;;;;;;;16.63;14.77;;;;;;;;;;5055011;28;20388;-81
2024/03/05 03:21:19;;;;;;;18.65;15.02;;;;;;;;;;5058351;28;20380;-81
2024/03/05 03:23:45;;;;;;;18.42;15.65;;;;;;;;;;5058494;28;20378;-81
2024/03/05 03:26:11;;;;;;;20.13;16.80;;;;;;;;;;5058121;28;20385;-81
2024/03/05 03:28:37;;;;;;;17.33;15.30;;;;;;;;;;5058150;28;20387;-81
2024/03/05 03:31:05;;;;;;;16.42;14.65;;;;;;;;;;5057783;28;20882;-81
2024/03/05 03:33:31;;;;;;;19.37;15.20;;;;;;;;;;5057905;28;20878;-81
2024/03/05 03:35:58;;;;;;;14.88;13.18;;;;;;;;;;5057908;28;20365;-81
2024/03/05 03:38:24;;;;;;;17.33;14.73;;;;;;;;;;5057306;28;20467;-81
2024/03/05 03:40:51;;;;;;;15.45;13.50;;;;;;;;;;5057633;28;20423;-81
2024/03/05 03:43:17;;;;;;;15.85;13.70;;;;;;;;;;5058095;28;20405;-81
2024/03/05 03:45:43;;;;;;;17.67;14.38;;;;;;;;;;5057396;28;20797;-81
2024/03/05 03:48:10;;;;;;;16.63;14.07;;;;;;;;;;5057448;28;20382;-81
2024/03/05 03:50:37;;;;;;;17.08;14.23;;;;;;;;;;5057620;28;20421;-81
2024/03/05 03:53:04;;;;;;;14.68;13.13;;;;;;;;;;5057422;28;20373;-81
2024/03/05 03:55:30;;;;;;;15.55;13.85;;;;;;;;;;5058740;28;20377;-81
2024/03/05 03:57:56;;;;;;;17.20;14.60;;;;;;;;;;5057762;28;20439;-81
2024/03/05 04:00:23;;;;;;;18.85;16.08;;;;;;;;;;5057723;28;20396;-81
2024/03/05 04:02:49;;;;;;;17.88;14.90;;;;;;;;;;5056603;28;20432;-81
2024/03/05 04:05:15;;;;;;;16.05;14.43;;;;;;;;;;5055080;28;20408;-81
2024/03/05 04:07:42;;;;;;;18.85;15.40;;;;;;;;;;5057241;28;20926;-81
2024/03/05 04:10:11;;;;;;;19.95;16.20;;;;;;;;;;5057301;28;20461;-81
2024/03/05 04:12:39;;;;;;;18.70;16.48;;;;;;;;;;5057359;28;20396;-81
2024/03/05 04:15:07;;;;;;;20.63;17.33;;;;;;;;;;5057174;28;20385;-81
2024/03/05 04:17:36;;;;;;;19.83;17.25;;;;;;;;;;5056802;28;20381;-81
2024/03/05 04:20:03;;;;;;;21.63;17.88;;;;;;;;;;5056945;28;20378;-81
2024/03/05 04:22:29;;;;;;;20.92;17.80;;;;;;;;;;5056657;28;20408;-81
2024/03/05 04:24:56;;;;;;;23.58;19.25;;;;;;;;;;5056857;28;20385;-81
2024/03/05 04:27:24;;;;;;;21.20;18.67;;;;;;;;;;5056345;28;20378;-81
2024/03/05 04:29:56;;;;;;;23.05;18.85;;;;;;;;;;5056585;28;20374;-81
2024/03/05 04:32:24;;;;;;;21.27;18.05;;;;;;;;;;5056211;28;20389;-81
2024/03/05 04:34:59;;;;;;;20.23;17.92;;;;;;;;;;5054787;28;20416;-81
2024/03/05 04:37:25;;;;;;;20.65;17.73;;;;;;;;;;5056447;28;20388;-81
2024/03/05 04:39:51;;;;;;;23.08;18.20;;;;;;;;;;5056068;28;20763;-81
2024/03/05 04:42:17;;;;;;;22.02;17.92;;;;;;;;;;5056545;28;20405;-80
2024/03/05 04:44:43;;;;;;;24.58;19.83;;;;;;;;;;5056414;28;20388;-80
2024/03/05 04:47:10;;;;;;;25.60;20.97;;;;;;;;;;5056170;28;20541;-82
2024/03/05 04:49:36;;;;;;;25.67;21.60;;;;;;;;;;5056049;28;20416;-80
2024/03/05 04:52:03;;;;;;;28.42;22.02;;;;;;;;;;5056075;28;20464;-80
2024/03/05 04:54:34;;;;;;;26.52;21.85;;;;;;;;;;5056324;28;20430;-80
2024/03/05 04:57:00;;;;;;;28.30;22.30;;;;;;;;;;5056174;28;20378;-82
2024/03/05 04:59:26;;;;;;;28.07;21.70;;;;;;;;;;5055948;28;20413;-82
2024/03/05 05:01:52;;;;;;;26.33;21.50;;;;;;;;;;5055888;28;20894;-82
2024/03/05 05:04:18;;;;;;;26.33;21.10;;;;;;;;;;5056446;28;20878;-82
2024/03/05 05:06:44;;;;;;;27.07;22.07;;;;;;;;;;5056782;28;20411;-82
2024/03/05 05:09:10;;;;;;;26.83;22.08;;;;;;;;;;5055342;28;20982;-82
2024/03/05 05:11:36;;;;;;;33.40;23.17;;;;;;;;;;5056072;28;20385;-81
2024/03/05 05:14:03;;;;;;;28.27;21.73;;;;;;;;;;5056379;28;20476;-82
2024/03/05 05:16:29;;;;;;;27.55;21.67;;;;;;;;;;5055857;28;20413;-81
2024/03/05 05:18:55;;;;;;;28.08;21.70;;;;;;;;;;5056048;28;20385;-79
2024/03/05 05:21:22;;;;;;;27.97;21.40;;;;;;;;;;5056357;28;20484;-82
2024/03/05 05:23:48;;;;;;;25.48;21.00;;;;;;;;;;5055900;28;20404;-82
2024/03/05 05:26:13;;;;;;;27.05;20.35;;;;;;;;;;5056373;28;20382;-82
2024/03/05 05:28:43;;;;;;;24.70;20.23;;;;;;;;;;5055803;28;20385;-82
2024/03/05 05:31:21;;;;;;;22.77;18.77;;;;;;;;;;5055804;28;20728;-82
2024/03/05 05:33:48;;;;;;;23.58;19.33;;;;;;;;;;5056003;28;20448;-82
2024/03/05 05:36:14;;;;;;;24.00;18.73;;;;;;;;;;5056295;28;20383;-82
2024/03/05 05:38:42;;;;;;;24.80;19.88;;;;;;;;;;5055746;28;20378;-82
2024/03/05 05:41:08;;;;;;;26.17;20.20;;;;;;;;;;5055737;28;20907;-82
2024/03/05 05:43:34;;;;;;;23.02;20.10;;;;;;;;;;5055694;28;20899;-82
2024/03/05 05:46:03;;;;;;;24.65;20.15;;;;;;;;;;5056027;28;20384;-82
2024/03/05 05:48:31;;;;;;;22.20;19.20;;;;;;;;;;5055307;28;20417;-82
2024/03/05 05:50:58;;;;;;;24.05;19.30;;;;;;;;;;5056294;28;20374;-82
2024/03/05 05:53:24;;;;;;;24.10;19.87;;;;;;;;;;5055640;28;20416;-82
2024/03/05 05:55:50;;;;;;;24.98;18.77;;;;;;;;;;5055801;28;20393;-82
2024/03/05 05:58:16;;;;;;;22.88;18.40;;;;;;;;;;5055184;28;20924;-82
2024/03/05 06:00:44;;;;;;;22.45;19.08;;;;;;;;;;5054865;28;20381;-81
2024/03/05 06:03:11;;;;;;;19.90;17.50;;;;;;;;;;5054976;28;20405;-83
2024/03/05 06:05:38;;;;;;;22.48;17.60;;;;;;;;;;5037756;28;20376;-82
2024/03/05 06:08:07;;;;;;;21.88;17.92;;;;;;;;;;5035205;28;20749;-82
2024/03/05 06:10:33;;;;;;;18.83;16.63;;;;;;;;;;5035274;28;20383;-82
2024/03/05 06:13:00;;;;;;;18.80;16.60;;;;;;;;;;5036048;28;20382;-82
2024/03/05 06:15:28;;;;;;;18.90;16.88;;;;;;;;;;5035224;28;20375;-82
2024/03/05 06:17:55;;;;;;;18.40;16.02;;;;;;;;;;5035630;28;20371;-82
2024/03/05 06:20:21;;;;;;;16.92;15.13;;;;;;;;;;5035182;28;20784;-82
2024/03/05 06:22:48;;;;;;;18.50;16.17;;;;;;;;;;5035240;28;20514;-82
2024/03/05 06:25:17;;;;;;;18.02;16.10;;;;;;;;;;5034963;28;20386;-82
2024/03/05 06:27:43;;;;;;;17.20;15.15;;;;;;;;;;5035441;28;20390;-82
2024/03/05 06:30:15;;;;;;;17.73;15.45;;;;;;;;;;5035207;28;20425;-82
2024/03/05 06:32:43;;;;;;;18.40;15.38;;;;;;;;;;5046492;28;20392;-81
2024/03/05 06:35:12;;;;;;;19.15;15.73;;;;;;;;;;5054721;28;20751;-82
2024/03/05 06:37:41;;;;;;;16.45;14.77;;;;;;;;;;5054612;28;20374;-82
2024/03/05 06:40:11;;;;;;;16.92;14.35;;;;;;;;;;5055009;28;20382;-82
2024/03/05 06:42:38;;;;;;;16.17;14.52;;;;;;;;;;5054673;28;20451;-82
2024/03/05 06:45:06;;;;;;;16.65;14.77;;;;;;;;;;5054531;28;20376;-82
2024/03/05 06:47:38;;;;;;;15.90;14.30;;;;;;;;;;5054670;28;20409;-82
2024/03/05 06:50:08;;;;;;;16.88;15.10;;;;;;;;;;5054634;28;20732;-82
2024/03/05 06:58:04;;;;;;;17.85;14.82;;;;;;;;;;5054386;28;20924;-82
2024/03/05 07:00:30;;;;;;;16.27;14.57;;;;;;;;;;5054743;28;20389;-82
2024/03/05 07:02:57;;;;;;;16.08;14.38;;;;;;;;;;5054784;28;20867;-83
2024/03/05 07:05:23;;;;;;;16.17;14.38;;;;;;;;;;5054896;28;20758;-82
2024/03/05 07:07:49;;;;;;;15.27;13.70;;;;;;;;;;5054454;28;20465;-83
2024/03/05 07:10:21;;;;;;;15.80;14.20;;;;;;;;;;5054869;28;20389;-83
2024/03/05 07:12:49;;;;;;;15.45;13.65;;;;;;;;;;5054785;28;20373;-82
2024/03/05 07:15:15;;;;;;;15.80;13.87;;;;;;;;;;5054925;28;20385;-82
2024/03/05 07:17:44;;;;;;;16.35;14.13;;;;;;;;;;5054327;28;20428;-82
2024/03/05 07:20:22;;;;;;;14.90;13.32;;;;;;;;;;5054567;28;20382;-82
2024/03/05 07:22:49;;;;;;;15.40;13.77;;;;;;;;;;5053860;28;20405;-82
2024/03/05 07:25:15;;;;;;;15.93;14.10;;;;;;;;;;5054413;28;20385;-82
2024/03/05 07:27:46;;;;;;;16.55;14.60;;;;;;;;;;5054518;28;20701;-82
2024/03/05 07:30:15;;;;;;;16.88;14.55;;;;;;;;;;5055161;28;20381;-82
2024/03/05 07:32:42;;;;;;;15.35;13.63;;;;;;;;;;5054492;28;20473;-83
2024/03/05 07:35:08;;;;;;;16.52;13.77;;;;;;;;;;5054633;28;20388;-82
2024/03/05 07:37:34;;;;;;;17.30;14.95;;;;;;;;;;5054547;28;20874;-83
2024/03/05 07:40:11;;;;;;;15.95;14.25;;;;;;;;;;5054324;28;20433;-82
2024/03/05 07:42:40;;;;;;;17.02;14.15;;;;;;;;;;5054081;28;20401;-82
2024/03/05 07:45:07;;;;;;;16.08;14.27;;;;;;;;;;5052690;28;20727;-83
2024/03/05 07:47:33;;;;;;;15.98;14.30;;;;;;;;;;5054251;28;20950;-82
2024/03/05 07:49:59;;;;;;;16.73;14.52;;;;;;;;;;5053991;28;20494;-82
2024/03/05 07:52:25;;;;;;;15.65;13.63;;;;;;;;;;5053826;28;20382;-81
2024/03/05 07:54:51;;;;;;;15.75;13.20;;;;;;;;;;5053794;28;20385;-82
2024/03/05 07:57:17;;;;;;;14.93;13.43;;;;;;;;;;5053024;28;20400;-82
2024/03/05 07:59:43;;;;;;;15.02;13.43;;;;;;;;;;5053763;28;20393;-82
2024/03/05 08:02:13;;;;;;;15.50;13.93;;;;;;;;;;5053705;28;20886;-81
2024/03/05 08:04:39;;;;;;;16.20;13.85;;;;;;;;;;5054028;28;20373;-81
2024/03/05 08:07:07;;;;;;;14.10;12.70;;;;;;;;;;5057206;28;20385;-81
2024/03/05 08:09:36;;;;;;;13.63;12.23;;;;;;;;;;5047438;28;20382;-82
2024/03/05 08:12:02;;;;;;;14.25;12.50;;;;;;;;;;5037720;28;20383;-82
2024/03/05 08:14:30;;;;;;;12.68;11.40;;;;;;;;;;5038032;28;20849;-82
2024/03/05 08:16:56;;;;;;;12.90;11.38;;;;;;;;;;5037911;28;20385;-82
2024/03/05 08:19:22;;;;;;;11.70;10.45;;;;;;;;;;5037744;28;20414;-82
2024/03/05 08:21:48;;;;;;;12.10;11.00;;;;;;;;;;5037763;28;20415;-81
2024/03/05 08:24:14;;;;;;;12.13;10.93;;;;;;;;;;5037892;28;20390;-81
2024/03/05 08:26:41;;;;;;;11.43;10.32;;;;;;;;;;5037720;28;20406;-82
2024/03/05 08:29:08;;;;;;;11.30;10.20;;;;;;;;;;5037506;28;21005;-80
2024/03/05 08:31:34;;;;;;;10.93;9.93;;;;;;;;;;5038023;28;20371;-80
2024/03/05 08:34:02;;;;;;;11.07;9.38;;;;;;;;;;5037635;28;20707;-80
2024/03/05 08:36:30;;;;;;;9.68;8.82;;;;;;;;;;5044347;28;20382;-80
2024/03/05 08:38:56;;;;;;;9.20;8.30;;;;;;;;;;5057011;28;20377;-80
2024/03/05 08:41:22;;;;;;;8.50;7.80;;;;;;;;;;5057478;28;20389;-80
2024/03/05 08:43:48;;;;;;;8.25;7.45;;;;;;;;;;5057216;28;20413;-80
2024/03/05 08:46:14;;;;;;;7.90;7.20;;;;;;;;;;5057098;28;20373;-80
2024/03/05 08:48:46;;;;;;;7.32;6.70;;;;;;;;;;5057204;28;20410;-80
2024/03/05 08:51:12;;;;;;;6.88;6.20;;;;;;;;;;5056194;28;20374;-79
2024/03/05 08:53:38;;;;;;;11.43;6.60;;;;;;;;;;5052495;28;20407;-80
2024/03/05 08:56:07;;;;;;;7.05;6.32;;;;;;;;;;5056325;28;20393;-80
2024/03/05 08:58:36;;;;;;;7.05;6.45;;;;;;;;;;5055739;28;20393;-80
2024/03/05 09:01:02;;;;;;;6.68;5.97;;;;;;;;;;5056655;28;20388;-80
2024/03/05 09:03:30;;;;;;;6.20;5.68;;;;;;;;;;5056615;28;20763;-80
2024/03/05 09:05:56;;;;;;;5.70;5.20;;;;;;;;;;5056115;28;20381;-81
2024/03/05 09:08:22;;;;;;;5.38;4.88;;;;;;;;;;5056442;28;20411;-80
2024/03/05 09:10:48;;;;;;;5.10;4.60;;;;;;;;;;5056135;28;20377;-80
2024/03/05 09:13:14;;;;;;;4.97;4.47;;;;;;;;;;5056280;28;20532;-79
2024/03/05 09:15:41;;;;;;;4.35;3.95;;;;;;;;;;5056002;28;20453;-80
2024/03/05 09:18:09;;;;;;;4.45;4.07;;;;;;;;;;5054788;28;20385;-80
2024/03/05 09:20:35;;;;;;;4.00;3.60;;;;;;;;;;5055577;28;20717;-80
2024/03/05 09:23:01;;;;;;;3.92;3.60;;;;;;;;;;5055350;28;20409;-80
2024/03/05 09:25:30;;;;;;;3.78;3.47;;;;;;;;;;5055761;28;20409;-80
2024/03/05 09:27:56;;;;;;;3.75;3.10;;;;;;;;;;5055623;28;20719;-79
2024/03/05 09:30:22;;;;;;;2.80;2.60;;;;;;;;;;5055555;28;20377;-80
2024/03/05 09:32:48;;;;;;;3.40;3.15;;;;;;;;;;5055500;28;20381;-79
2024/03/05 09:35:18;;;;;;;3.33;3.03;;;;;;;;;;5055764;28;20389;-80
2024/03/05 09:37:46;;;;;;;3.17;2.88;;;;;;;;;;5055697;28;20747;-80
2024/03/05 09:40:20;;;;;;;3.00;2.80;;;;;;;;;;5055426;28;20839;-80
2024/03/05 09:42:49;;;;;;;3.13;2.92;;;;;;;;;;5055742;28;20906;-80
2024/03/05 09:45:16;;;;;;;3.10;2.80;;;;;;;;;;5055348;28;20754;-80
2024/03/05 09:47:43;;;;;;;3.20;2.90;;;;;;;;;;5055602;28;20473;-80
2024/03/05 09:50:11;;;;;;;3.00;2.80;;;;;;;;;;5055224;28;20783;-81
2024/03/05 09:52:38;;;;;;;2.88;2.67;;;;;;;;;;5055509;28;20381;-80
2024/03/05 09:55:04;;;;;;;2.78;2.58;;;;;;;;;;5055428;28;20754;-80
2024/03/05 09:57:34;;;;;;;3.08;2.78;;;;;;;;;;5055809;28;20427;-80
2024/03/05 10:00:00;;;;;;;2.47;2.28;;;;;;;;;;5055443;28;20389;-80
2024/03/05 10:02:26;;;;;;;2.90;2.60;;;;;;;;;;5055205;28;20475;-80
2024/03/05 10:04:58;;;;;;;2.60;2.40;;;;;;;;;;5055398;28;20459;-80
2024/03/05 10:07:27;;;;;;;2.47;2.28;;;;;;;;;;5055317;28;20762;-81
2024/03/05 10:10:03;;;;;;;2.20;2.03;;;;;;;;;;5053301;28;20385;-81
2024/03/05 10:12:29;;;;;;;2.92;2.35;;;;;;;;;;5034873;28;20382;-81
2024/03/05 10:15:10;;;;;;;2.95;2.00;;;;;;;;;;5034931;28;20466;-80
2024/03/05 10:17:44;;;;;;;4.10;2.45;;;;;;;;;;5035038;28;20868;-80
2024/03/05 10:20:10;;;;;;;4.25;2.22;;;;;;;;;;5035161;28;20395;-80
2024/03/05 10:22:39;;;;;;;10.70;3.25;;;;;;;;;;5034562;28;20498;-80
2024/03/05 10:25:13;;;;;;;2.00;1.90;;;;;;;;;;5034838;28;20386;-81
2024/03/05 10:27:45;;;;;;;2.07;1.70;;;;;;;;;;5035575;28;20462;-81
2024/03/05 10:30:24;;;;;;;1.57;1.47;;;;;;;;;;5047829;28;20409;-80
2024/03/05 10:33:00;;;;;;;1.73;1.63;;;;;;;;;;5054374;28;20519;-80
2024/03/05 10:35:26;;;;;;;1.75;1.65;;;;;;;;;;5054700;28;20381;-80
2024/03/05 10:37:55;;;;;;;4.10;1.63;;;;;;;;;;5054931;28;20441;-82
2024/03/05 10:40:21;;;;;;;1.85;1.50;;;;;;;;;;5057003;28;20879;-83
2024/03/05 10:42:48;;;;;;;1.90;1.80;;;;;;;;;;5046306;28;20419;-81
2024/03/05 10:45:15;;;;;;;1.40;1.30;;;;;;;;;;5050861;28;20378;-81
2024/03/05 10:47:41;;;;;;;1.80;1.70;;;;;;;;;;5043698;28;20382;-81
2024/03/05 10:50:12;;;;;;;2.08;1.88;;;;;;;;;;5042119;28;20874;-81
2024/03/05 10:52:38;;;;;;;11.27;6.28;;;;;;;;;;5044842;28;20763;-80
2024/03/05 10:55:11;;;;;;;3.90;2.92;;;;;;;;;;5041258;28;20383;-80
2024/03/05 10:58:08;;;;;;;2.08;1.83;;;;;;;;;;5040675;28;20390;-81
2024/03/05 11:00:24;;;;;;;1.90;1.40;;;;;;;;;;5039602;28;20395;-81
2024/03/05 11:02:51;;;;;;;1.67;1.58;;;;;;;;;;5042868;28;20421;-80
2024/03/05 11:05:18;;;;;;;1.25;1.15;;;;;;;;;;5044756;28;20453;-81
2024/03/05 11:07:47;;;;;;;1.40;1.30;;;;;;;;;;5042386;28;20375;-80
2024/03/05 11:10:13;;;;;;;1.60;1.33;;;;;;;;;;5054453;28;20381;-80
2024/03/05 11:12:42;;;;;;;1.50;1.20;;;;;;;;;;5055816;28;20393;-81
2024/03/05 11:15:12;;;;;;;1.30;1.20;;;;;;;;;;5055710;28;20374;-81
2024/03/05 11:17:39;;;;;;;1.40;1.30;;;;;;;;;;5053251;28;20472;-80
2024/03/05 11:20:09;;;;;;;1.30;1.20;;;;;;;;;;5055331;28;20377;-80
2024/03/05 11:22:36;;;;;;;1.40;1.30;;;;;;;;;;5055358;28;20413;-81
2024/03/05 11:25:05;;;;;;;1.30;1.20;;;;;;;;;;5054017;28;20374;-81
2024/03/05 11:27:33;;;;;;;1.47;1.10;;;;;;;;;;5054803;28;20381;-81
2024/03/05 11:30:20;;;;;;;0.90;0.90;;;;;;;;;;5055768;28;20843;-81
2024/03/05 11:32:50;;;;;;;1.20;0.85;;;;;;;;;;5052190;28;20381;-81
2024/03/05 11:35:18;;;;;;;2.33;1.13;;;;;;;;;;5053064;28;20472;-82
2024/03/05 11:37:55;;;;;;;1.27;0.77;;;;;;;;;;5055455;28;20389;-81
2024/03/05 11:40:28;;;;;;;1.33;0.70;;;;;;;;;;5054476;28;20790;-81
2024/03/05 11:42:54;;;;;;;0.75;0.75;;;;;;;;;;5059428;28;20416;-81
2024/03/05 11:45:39;;;;;;;0.70;0.70;;;;;;;;;;5059941;28;20373;-81
2024/03/05 11:48:05;;;;;;;1.00;0.90;;;;;;;;;;5060198;28;20390;-81
2024/03/05 11:50:31;;;;;;;0.82;0.70;;;;;;;;;;5059383;28;20479;-81
2024/03/05 11:52:57;;;;;;;0.63;0.63;;;;;;;;;;5059362;28;20388;-81
2024/03/05 11:55:28;;;;;;;0.77;0.70;;;;;;;;;;5058281;28;20740;-82
2024/03/05 11:57:56;;;;;;;0.60;0.60;;;;;;;;;;5059190;28;20388;-81
2024/03/05 12:00:23;;;;;;;0.93;0.68;;;;;;;;;;5060162;28;20431;-81
2024/03/05 12:02:52;;;;;;;0.43;0.40;;;;;;;;;;5056962;28;20447;-81
2024/03/05 12:05:18;;;;;;;1.30;0.67;;;;;;;;;;5056557;28;20385;-81
2024/03/05 12:07:58;;;;;;;0.95;0.80;;;;;;;;;;5059298;28;20377;-81
2024/03/05 12:10:26;;;;;;;0.90;0.80;;;;;;;;;;5058987;28;20383;-81
2024/03/05 12:12:52;;;;;;;2.90;1.10;;;;;;;;;;5058307;28;20442;-81
2024/03/05 12:15:23;;;;;;;1.55;1.30;;;;;;;;;;5057752;28;20386;-81
2024/03/05 12:17:49;;;;;;;0.90;0.70;;;;;;;;;;5055725;28;20377;-80
2024/03/05 12:20:19;;;;;;;1.83;1.10;;;;;;;;;;5058285;28;20920;-81
2024/03/05 12:22:52;;;;;;;3.38;1.00;;;;;;;;;;5058922;28;20748;-81
2024/03/05 12:25:19;;;;;;;1.48;0.98;;;;;;;;;;5058510;28;20859;-81
2024/03/05 12:27:48;;;;;;;1.35;0.90;;;;;;;;;;5058121;28;20374;-81
2024/03/05 12:30:14;;;;;;;1.27;0.90;;;;;;;;;;5058465;28;20385;-81
2024/03/05 12:32:42;;;;;;;1.98;1.15;;;;;;;;;;5058256;28;20443;-81
2024/03/05 12:35:09;;;;;;;1.67;0.80;;;;;;;;;;5058153;28;20378;-81
2024/03/05 12:37:35;;;;;;;1.10;0.70;;;;;;;;;;5057919;28;20448;-81
2024/03/05 12:40:07;;;;;;;1.25;0.80;;;;;;;;;;5058610;28;20393;-81
2024/03/05 12:42:33;;;;;;;8.68;1.10;;;;;;;;;;5057187;28;20397;-81
2024/03/05 12:45:04;;;;;;;1.27;0.70;;;;;;;;;;5058903;28;20916;-81
2024/03/05 12:47:30;;;;;;;2.15;1.00;;;;;;;;;;5058412;28;20374;-81
2024/03/05 12:49:56;;;;;;;2.10;0.90;;;;;;;;;;5058413;28;20751;-81
2024/03/05 12:52:23;;;;;;;2.00;0.75;;;;;;;;;;5057079;28;20383;-81
2024/03/05 12:55:02;;;;;;;1.60;0.70;;;;;;;;;;5057923;28;20890;-81
2024/03/05 12:57:29;;;;;;;3.20;1.30;;;;;;;;;;5057104;28;20444;-81
2024/03/05 13:00:05;;;;;;;2.35;0.73;;;;;;;;;;5057704;28;20743;-81
2024/03/05 13:02:31;;;;;;;1.10;0.63;;;;;;;;;;5058230;28;20406;-81
2024/03/05 13:04:58;;;;;;;1.83;0.73;;;;;;;;;;5056317;28;20940;-81
2024/03/05 13:07:24;;;;;;;1.40;0.85;;;;;;;;;;5058099;28;20393;-81
2024/03/05 13:09:50;;;;;;;2.78;1.10;;;;;;;;;;5057996;28;20382;-81
2024/03/05 13:12:18;;;;;;;1.90;1.00;;;;;;;;;;5058422;28;20461;-81
2024/03/05 13:14:44;;;;;;;1.57;0.63;;;;;;;;;;5057604;28;20378;-82
2024/03/05 13:17:10;;;;;;;1.95;0.68;;;;;;;;;;5058496;28;20745;-81
2024/03/05 13:19:39;;;;;;;1.60;0.60;;;;;;;;;;5057871;28;20473;-82
2024/03/05 13:22:05;;;;;;;1.63;0.63;;;;;;;;;;5057584;28;20421;-81
2024/03/05 13:24:31;;;;;;;4.87;1.07;;;;;;;;;;5057879;28;20388;-81
2024/03/05 13:26:59;;;;;;;1.58;0.60;;;;;;;;;;5057807;28;20735;-81
2024/03/05 13:29:25;;;;;;;2.13;0.80;;;;;;;;;;5057594;28;20405;-81
2024/03/05 13:31:52;;;;;;;1.23;0.60;;;;;;;;;;5057212;28;20472;-81
2024/03/05 13:34:22;;;;;;;1.88;0.80;;;;;;;;;;5057362;28;20374;-81
2024/03/05 13:36:48;;;;;;;1.58;0.65;;;;;;;;;;5058001;28;20393;-81
2024/03/05 13:39:18;;;;;;;2.28;0.82;;;;;;;;;;5057975;28;20827;-81
2024/03/05 13:41:44;;;;;;;3.17;0.80;;;;;;;;;;5056481;28;20467;-81
2024/03/05 13:44:10;;;;;;;1.30;0.65;;;;;;;;;;5057806;28;20435;-81
2024/03/05 13:46:39;;;;;;;0.90;0.53;;;;;;;;;;5056862;28;20941;-81
2024/03/05 13:49:09;;;;;;;0.98;0.50;;;;;;;;;;5056361;28;20433;-81
2024/03/05 13:51:35;;;;;;;1.23;0.50;;;;;;;;;;5056727;28;20430;-81
2024/03/05 13:54:06;;;;;;;1.55;0.50;;;;;;;;;;5056427;28;20464;-82
2024/03/05 13:56:32;;;;;;;2.47;0.85;;;;;;;;;;5056043;28;20470;-81
2024/03/05 13:58:59;;;;;;;0.70;0.40;;;;;;;;;;5056854;28;20385;-81
2024/03/05 14:01:26;;;;;;;0.95;0.60;;;;;;;;;;5057352;28;20445;-81
2024/03/05 14:03:54;;;;;;;1.45;0.68;;;;;;;;;;5056945;28;20406;-81
2024/03/05 14:06:20;;;;;;;0.93;0.50;;;;;;;;;;5056843;28;20393;-81
2024/03/05 14:08:46;;;;;;;2.70;0.80;;;;;;;;;;5057502;28;20440;-81
2024/03/05 14:11:13;;;;;;;3.35;0.98;;;;;;;;;;5048875;28;20379;-81
2024/03/05 14:13:39;;;;;;;2.33;0.70;;;;;;;;;;5036979;28;20718;-81
2024/03/05 14:16:06;;;;;;;1.73;0.40;;;;;;;;;;5036401;28;20395;-81
2024/03/05 14:18:33;;;;;;;1.33;0.50;;;;;;;;;;5036645;28;20427;-81
2024/03/05 14:20:59;;;;;;;1.45;0.50;;;;;;;;;;5056113;28;20381;-81
2024/03/05 14:23:25;;;;;;;1.33;0.70;;;;;;;;;;5056151;28;20406;-81
2024/03/05 14:25:51;;;;;;;1.45;0.70;;;;;;;;;;5056767;28;20812;-81
2024/03/05 14:28:17;;;;;;;6.57;1.00;;;;;;;;;;5056188;28;20397;-81
2024/03/05 14:30:43;;;;;;;2.97;1.08;;;;;;;;;;5053703;28;20392;-81
2024/03/05 14:33:10;;;;;;;2.67;0.90;;;;;;;;;;5055471;28;20583;-80
2024/03/05 14:35:36;;;;;;;3.75;0.70;;;;;;;;;;5056817;28;20464;-81